^^
Your Local Weather - Clay, NY Station Historical Data
Daily Summary for August 27, 2017 Units:  English    Metric   Both
« Previous Day
Next Day »
Daily Weekly Monthly Yearly Custom
  High: Low: Average:
Temperature: 72.1 °F 44.4 °F 58.2 °F
Dew Point: 55.5 °F 42.6 °F 49.2 °F
Humidity: 95% 44% 75%
Wind Speed: 5.0mph 0.0mph 1.2mph
Wind Gust: 9.0mph - -
Wind- - East
Pressure: 30.30 in 30.18 in -
Precipitation: 0.00 in    
Historical Graphs
 
 
Tabular Data for August 27, 2017
Time Temperature Dew Point Pressure Wind Wind Speed Wind Gust Humidity Rainfall Rate (Hourly) solar
00:02 49.9 °F 47.4 °F 30.26 in Calm     91% 0.00 in 0 W/m2
00:08 49.9 °F 47.7 °F 30.26 in Calm     92% 0.00 in 0 W/m2
00:13 49.9 °F 47.7 °F 30.26 in Calm     92% 0.00 in 0 W/m2
00:19 50.0 °F 47.8 °F 30.26 in Calm     92% 0.00 in 0 W/m2
00:26 49.9 °F 47.7 °F 30.26 in Calm     92% 0.00 in 0 W/m2
00:32 49.7 °F 47.5 °F 30.27 in Calm     92% 0.00 in 0 W/m2
00:38 49.5 °F 47.3 °F 30.27 in Calm     92% 0.00 in 0 W/m2
00:45 49.2 °F 47.0 °F 30.27 in Calm     92% 0.00 in 0 W/m2
00:52 48.9 °F 46.7 °F 30.27 in Calm     92% 0.00 in 0 W/m2
00:58 48.8 °F 46.6 °F 30.27 in Calm     92% 0.00 in 0 W/m2
01:04 48.7 °F 46.5 °F 30.27 in Calm     92% 0.00 in 0 W/m2
01:10 48.8 °F 46.6 °F 30.27 in Calm     92% 0.00 in 0 W/m2
01:16 49.0 °F 46.8 °F 30.27 in Calm     92% 0.00 in 0 W/m2
01:22 49.0 °F 46.8 °F 30.26 in Calm     92% 0.00 in 0 W/m2
01:28 48.9 °F 47.0 °F 30.26 in Calm     93% 0.00 in 0 W/m2
01:34 48.7 °F 46.8 °F 30.26 in Calm     93% 0.00 in 0 W/m2
01:40 48.9 °F 47.0 °F 30.26 in Calm     93% 0.00 in 0 W/m2
01:46 48.9 °F 47.0 °F 30.26 in Calm     93% 0.00 in 0 W/m2
01:52 48.7 °F 46.8 °F 30.26 in Calm     93% 0.00 in 0 W/m2
01:58 48.5 °F 46.6 °F 30.26 in Calm     93% 0.00 in 0 W/m2
02:04 48.5 °F 46.6 °F 30.26 in Calm     93% 0.00 in 0 W/m2
02:10 48.4 °F 46.5 °F 30.26 in Calm     93% 0.00 in 0 W/m2
02:16 48.4 °F 46.5 °F 30.26 in Calm     93% 0.00 in 0 W/m2
02:22 48.4 °F 46.5 °F 30.26 in Calm     93% 0.00 in 0 W/m2
02:28 48.1 °F 46.2 °F 30.26 in Calm     93% 0.00 in 0 W/m2
02:34 47.9 °F 46.0 °F 30.26 in Calm     93% 0.00 in 0 W/m2
02:40 47.9 °F 46.0 °F 30.26 in Calm     93% 0.00 in 0 W/m2
02:46 48.0 °F 46.1 °F 30.26 in Calm     93% 0.00 in 0 W/m2
02:52 48.0 °F 46.1 °F 30.26 in Calm     93% 0.00 in 0 W/m2
02:58 47.8 °F 45.9 °F 30.26 in Calm     93% 0.00 in 0 W/m2
03:04 47.6 °F 45.7 °F 30.26 in Calm     93% 0.00 in 0 W/m2
03:10 47.4 °F 45.5 °F 30.26 in Calm     93% 0.00 in 0 W/m2
03:16 47.2 °F 45.3 °F 30.26 in Calm     93% 0.00 in 0 W/m2
03:22 47.1 °F 45.2 °F 30.27 in Calm     93% 0.00 in 0 W/m2
03:28 47.0 °F 45.1 °F 30.27 in Calm     93% 0.00 in 0 W/m2
03:34 46.8 °F 44.9 °F 30.27 in Calm     93% 0.00 in 0 W/m2
03:40 46.6 °F 44.7 °F 30.27 in Calm     93% 0.00 in 0 W/m2
03:46 46.5 °F 44.6 °F 30.27 in Calm     93% 0.00 in 0 W/m2
03:52 46.7 °F 44.8 °F 30.26 in Calm     93% 0.00 in 0 W/m2
03:58 46.7 °F 44.8 °F 30.26 in Calm     93% 0.00 in 0 W/m2
04:04 46.9 °F 45.0 °F 30.26 in Calm     93% 0.00 in 0 W/m2
04:10 46.7 °F 44.8 °F 30.26 in Calm     93% 0.00 in 0 W/m2
04:16 46.5 °F 44.6 °F 30.26 in Calm     93% 0.00 in 0 W/m2
04:22 46.3 °F 44.4 °F 30.27 in Calm     93% 0.00 in 0 W/m2
04:30 46.0 °F 44.1 °F 30.26 in Calm     93% 0.00 in 0 W/m2
04:36 45.8 °F 43.9 °F 30.26 in Calm     93% 0.00 in 0 W/m2
04:42 46.1 °F 44.5 °F 30.26 in Calm     94% 0.00 in 0 W/m2
04:48 46.1 °F 44.5 °F 30.26 in Calm     94% 0.00 in 0 W/m2
04:54 45.9 °F 44.3 °F 30.26 in Calm     94% 0.00 in 0 W/m2
05:00 45.6 °F 43.7 °F 30.27 in Calm     93% 0.00 in 0 W/m2
05:06 45.4 °F 43.8 °F 30.27 in Calm     94% 0.00 in 0 W/m2
05:12 45.1 °F 43.2 °F 30.27 in Calm     93% 0.00 in 0 W/m2
05:18 45.1 °F 43.2 °F 30.27 in Calm     93% 0.00 in 0 W/m2
05:24 45.0 °F 43.1 °F 30.27 in Calm     93% 0.00 in 0 W/m2
05:30 45.0 °F 43.4 °F 30.27 in Calm     94% 0.00 in 0 W/m2
05:36 44.8 °F 43.2 °F 30.27 in Calm     94% 0.00 in 0 W/m2
05:42 44.5 °F 42.6 °F 30.27 in Calm     93% 0.00 in 0 W/m2
05:48 44.5 °F 42.6 °F 30.28 in Calm     93% 0.00 in 0 W/m2
05:54 44.4 °F 42.8 °F 30.28 in Calm     94% 0.00 in 0 W/m2
06:00 44.4 °F 42.8 °F 30.28 in Calm     94% 0.00 in 0 W/m2
06:06 44.8 °F 43.2 °F 30.28 in Calm     94% 0.00 in 0 W/m2
06:12 45.1 °F 43.5 °F 30.28 in Calm     94% 0.00 in 0 W/m2
06:18 45.1 °F 43.5 °F 30.28 in Calm     94% 0.00 in 0 W/m2
06:24 44.9 °F 43.3 °F 30.28 in Calm     94% 0.00 in 0 W/m2
06:30 44.8 °F 43.2 °F 30.28 in Calm     94% 0.00 in 7 W/m2
06:36 44.6 °F 43.0 °F 30.28 in Calm     94% 0.00 in 11 W/m2
06:42 44.6 °F 43.0 °F 30.28 in Calm     94% 0.00 in 14 W/m2
06:48 44.9 °F 43.3 °F 30.28 in Calm     94% 0.00 in 18 W/m2
06:54 45.3 °F 43.7 °F 30.28 in Calm     94% 0.00 in 21 W/m2
07:00 45.4 °F 43.8 °F 30.29 in Calm     94% 0.00 in 26 W/m2
07:06 45.4 °F 43.8 °F 30.29 in Calm     94% 0.00 in 35 W/m2
07:12 45.6 °F 44.0 °F 30.29 in Calm     94% 0.00 in 53 W/m2
07:18 45.8 °F 44.2 °F 30.29 in Calm     94% 0.00 in 42 W/m2
07:24 46.1 °F 44.5 °F 30.29 in Calm     94% 0.00 in 39 W/m2
07:30 46.5 °F 44.9 °F 30.30 in Calm     94% 0.00 in 40 W/m2
07:36 46.9 °F 45.3 °F 30.29 in Calm     94% 0.00 in 128 W/m2
07:42 48.1 °F 46.5 °F 30.29 in Calm     94% 0.00 in 169 W/m2
07:48 48.4 °F 46.8 °F 30.30 in Calm     94% 0.00 in 186 W/m2
07:54 48.5 °F 46.9 °F 30.29 in Calm     94% 0.00 in 60 W/m2
08:00 48.9 °F 47.2 °F 30.29 in Calm     94% 0.00 in 93 W/m2
08:06 49.3 °F 47.6 °F 30.29 in Calm     94% 0.00 in 223 W/m2
08:12 50.1 °F 48.7 °F 30.29 in Calm   1.0 mph 95% 0.00 in 88 W/m2
08:18 51.1 °F 49.4 °F 30.29 in Calm   2.0 mph 94% 0.00 in 56 W/m2
08:24 51.7 °F 50.3 °F 30.29 in NE 1.0 mph 1.0 mph 95% 0.00 in 116 W/m2
08:30 52.0 °F 50.3 °F 30.29 in East 2.0 mph 2.0 mph 94% 0.00 in 130 W/m2
08:36 52.3 °F 50.6 °F 30.30 in SE 2.0 mph 2.0 mph 94% 0.00 in 63 W/m2
08:42 52.9 °F 51.2 °F 30.30 in ESE 1.0 mph 2.0 mph 94% 0.00 in 144 W/m2
08:48 54.0 °F 52.3 °F 30.30 in SE 1.0 mph 5.0 mph 94% 0.00 in 107 W/m2
08:54 54.4 °F 52.1 °F 30.30 in ENE 1.0 mph 4.0 mph 92% 0.00 in 100 W/m2
09:00 54.7 °F 51.8 °F 30.30 in East 1.0 mph 5.0 mph 90% 0.00 in 72 W/m2
09:06 55.0 °F 50.9 °F 30.29 in East 1.0 mph 6.0 mph 86% 0.00 in 116 W/m2
09:12 55.6 °F 51.2 °F 30.29 in ESE 2.0 mph 2.0 mph 85% 0.00 in 76 W/m2
09:18 56.1 °F 51.0 °F 30.29 in ENE 2.0 mph 5.0 mph 83% 0.00 in 79 W/m2
09:24 56.4 °F 50.6 °F 30.29 in ENE 2.0 mph 2.0 mph 81% 0.00 in 153 W/m2
09:30 56.9 °F 51.5 °F 30.29 in ENE 1.0 mph 2.0 mph 82% 0.00 in 469 W/m2
09:36 57.7 °F 51.2 °F 30.29 in NE 2.0 mph 5.0 mph 79% 0.00 in 497 W/m2
09:42 58.5 °F 51.7 °F 30.29 in NNE 3.0 mph 3.0 mph 78% 0.00 in 519 W/m2
09:48 59.2 °F 51.6 °F 30.29 in ESE 2.0 mph 3.0 mph 76% 0.00 in 545 W/m2
09:54 60.0 °F 52.1 °F 30.29 in SSE 1.0 mph 3.0 mph 75% 0.00 in 582 W/m2
10:00 60.6 °F 52.6 °F 30.29 in ENE 2.0 mph 2.0 mph 75% 0.00 in 598 W/m2
10:06 61.0 °F 52.3 °F 30.29 in SSE 2.0 mph 3.0 mph 73% 0.00 in 615 W/m2
10:12 61.3 °F 51.4 °F 30.29 in ENE 2.0 mph 3.0 mph 70% 0.00 in 633 W/m2
10:18 62.2 °F 52.7 °F 30.29 in ESE 2.0 mph 4.0 mph 71% 0.00 in 649 W/m2
10:24 62.9 °F 52.6 °F 30.29 in ENE 2.0 mph 3.0 mph 69% 0.00 in 666 W/m2
10:30 63.5 °F 53.9 °F 30.28 in ESE 2.0 mph 2.0 mph 71% 0.00 in 682 W/m2
10:36 63.8 °F 53.4 °F 30.28 in East 1.0 mph 5.0 mph 69% 0.00 in 694 W/m2
10:42 64.2 °F 53.0 °F 30.28 in SE 2.0 mph 5.0 mph 67% 0.00 in 710 W/m2
10:48 64.3 °F 51.0 °F 30.28 in NNE 3.0 mph 5.0 mph 62% 0.00 in 722 W/m2
10:54 65.2 °F 53.1 °F 30.28 in ENE 3.0 mph 7.0 mph 65% 0.00 in 735 W/m2
11:00 65.0 °F 52.1 °F 30.28 in NNE 3.0 mph 3.0 mph 63% 0.00 in 745 W/m2
11:06 65.5 °F 50.8 °F 30.28 in ESE 3.0 mph 7.0 mph 59% 0.00 in 759 W/m2
11:12 65.8 °F 51.5 °F 30.28 in ENE 3.0 mph 3.0 mph 60% 0.00 in 770 W/m2
11:18 66.1 °F 52.7 °F 30.28 in NE 2.0 mph 8.0 mph 62% 0.00 in 780 W/m2
11:24 66.5 °F 52.2 °F 30.28 in NE 2.0 mph 2.0 mph 60% 0.00 in 791 W/m2
11:30 67.3 °F 52.9 °F 30.27 in East 2.0 mph 2.0 mph 60% 0.00 in 800 W/m2
11:36 67.0 °F 51.3 °F 30.27 in NE 2.0 mph 3.0 mph 57% 0.00 in 807 W/m2
11:42 67.5 °F 53.1 °F 30.27 in NNE 3.0 mph 4.0 mph 60% 0.00 in 816 W/m2
11:48 67.4 °F 53.9 °F 30.27 in SE 3.0 mph 7.0 mph 62% 0.00 in 823 W/m2
11:54 67.5 °F 50.3 °F 30.26 in NNE 3.0 mph 4.0 mph 54% 0.00 in 831 W/m2
12:00 67.8 °F 52.0 °F 30.26 in SSE 3.0 mph 7.0 mph 57% 0.00 in 840 W/m2
12:06 68.2 °F 48.8 °F 30.26 in ENE 4.0 mph 7.0 mph 50% 0.00 in 858 W/m2
12:12 68.4 °F 49.0 °F 30.26 in East 3.0 mph 4.0 mph 50% 0.00 in 854 W/m2
12:18 68.7 °F 51.9 °F 30.26 in East 3.0 mph 6.0 mph 55% 0.00 in 853 W/m2
12:24 68.6 °F 50.3 °F 30.26 in ENE 4.0 mph 7.0 mph 52% 0.00 in 851 W/m2
12:30 69.2 °F 50.8 °F 30.26 in ENE 4.0 mph 4.0 mph 52% 0.00 in 853 W/m2
12:36 68.8 °F 50.5 °F 30.26 in ESE 4.0 mph 4.0 mph 52% 0.00 in 889 W/m2
12:42 69.4 °F 49.9 °F 30.26 in NE 3.0 mph 3.0 mph 50% 0.00 in 881 W/m2
12:48 68.9 °F 51.1 °F 30.26 in SE 3.0 mph 4.0 mph 53% 0.00 in 907 W/m2
12:54 69.5 °F 50.0 °F 30.25 in ENE 4.0 mph 7.0 mph 50% 0.00 in 905 W/m2
13:00 69.7 °F 53.3 °F 30.25 in North 3.0 mph 9.0 mph 56% 0.00 in 861 W/m2
13:06 69.8 °F 50.9 °F 30.25 in SSE 3.0 mph 9.0 mph 51% 0.00 in 875 W/m2
13:12 69.6 °F 50.1 °F 30.25 in East 3.0 mph 6.0 mph 50% 0.00 in 867 W/m2
13:18 70.5 °F 52.5 °F 30.25 in NNE 2.0 mph 6.0 mph 53% 0.00 in 865 W/m2
13:24 70.1 °F 50.0 °F 30.25 in ESE 3.0 mph 5.0 mph 49% 0.00 in 870 W/m2
13:30 69.7 °F 50.8 °F 30.25 in NNE 3.0 mph 4.0 mph 51% 0.00 in 861 W/m2
13:36 69.7 °F 49.7 °F 30.24 in ENE 4.0 mph 4.0 mph 49% 0.00 in 865 W/m2
13:42 70.1 °F 49.5 °F 30.24 in NE 3.0 mph 5.0 mph 48% 0.00 in 860 W/m2
13:48 70.1 °F 50.6 °F 30.24 in NE 3.0 mph 5.0 mph 50% 0.00 in 853 W/m2
13:54 70.3 °F 50.2 °F 30.24 in NNE 3.0 mph 5.0 mph 49% 0.00 in 837 W/m2
14:00 69.8 °F 50.9 °F 30.23 in ENE 4.0 mph 4.0 mph 51% 0.00 in 835 W/m2
14:06 70.2 °F 50.1 °F 30.23 in NE 4.0 mph 5.0 mph 49% 0.00 in 823 W/m2
14:12 70.6 °F 51.1 °F 30.23 in NNE 3.0 mph 3.0 mph 50% 0.00 in 837 W/m2
14:18 70.0 °F 52.1 °F 30.23 in North 3.0 mph 6.0 mph 53% 0.00 in 828 W/m2
14:26 71.2 °F 52.1 °F 30.23 in ENE 3.0 mph 4.0 mph 51% 0.00 in 807 W/m2
14:32 70.2 °F 50.7 °F 30.23 in ENE 4.0 mph 7.0 mph 50% 0.00 in 810 W/m2
14:38 70.1 °F 49.5 °F 30.22 in NNE 5.0 mph 7.0 mph 48% 0.00 in 800 W/m2
14:44 70.6 °F 50.0 °F 30.22 in NE 5.0 mph 5.0 mph 48% 0.00 in 798 W/m2
14:50 70.7 °F 50.6 °F 30.22 in NNE 4.0 mph 4.0 mph 49% 0.00 in 773 W/m2
14:56 71.2 °F 51.1 °F 30.22 in East 3.0 mph 7.0 mph 49% 0.00 in 777 W/m2
15:02 71.3 °F 52.2 °F 30.22 in ENE 3.0 mph 4.0 mph 51% 0.00 in 772 W/m2
15:08 71.3 °F 52.2 °F 30.22 in NW 3.0 mph 8.0 mph 51% 0.00 in 717 W/m2
15:14 71.2 °F 50.5 °F 30.22 in ENE 4.0 mph 8.0 mph 48% 0.00 in 671 W/m2
15:20 71.0 °F 50.3 °F 30.22 in NE 4.0 mph 5.0 mph 48% 0.00 in 710 W/m2
15:26 71.4 °F 51.8 °F 30.22 in North 4.0 mph 7.0 mph 50% 0.00 in 680 W/m2
15:32 71.9 °F 51.1 °F 30.22 in NE 4.0 mph 7.0 mph 48% 0.00 in 696 W/m2
15:38 71.4 °F 50.7 °F 30.22 in NNW 4.0 mph 7.0 mph 48% 0.00 in 687 W/m2
15:46 71.4 °F 49.5 °F 30.21 in NE 4.0 mph 7.0 mph 46% 0.00 in 691 W/m2
15:52 71.4 °F 50.1 °F 30.20 in ENE 4.0 mph 5.0 mph 47% 0.00 in 584 W/m2
15:58 71.4 °F 49.5 °F 30.20 in ESE 5.0 mph 8.0 mph 46% 0.00 in 615 W/m2
16:04 71.7 °F 52.1 °F 30.20 in NNW 4.0 mph 4.0 mph 50% 0.00 in 605 W/m2
16:10 72.1 °F 49.0 °F 30.20 in NW 3.0 mph 5.0 mph 44% 0.00 in 617 W/m2
16:16 71.5 °F 50.8 °F 30.20 in ENE 4.0 mph 5.0 mph 48% 0.00 in 594 W/m2
16:22 71.6 °F 49.7 °F 30.20 in North 3.0 mph 4.0 mph 46% 0.00 in 555 W/m2
16:28 71.7 °F 49.2 °F 30.20 in NNE 3.0 mph 6.0 mph 45% 0.00 in 554 W/m2
16:34 71.5 °F 49.0 °F 30.20 in NW 4.0 mph 4.0 mph 45% 0.00 in 541 W/m2
16:40 71.9 °F 49.4 °F 30.20 in North 4.0 mph 6.0 mph 45% 0.00 in 527 W/m2
16:46 71.7 °F 49.2 °F 30.20 in North 4.0 mph 6.0 mph 45% 0.00 in 503 W/m2
16:52 72.0 °F 50.1 °F 30.19 in ENE 3.0 mph 4.0 mph 46% 0.00 in 485 W/m2
16:58 71.6 °F 49.1 °F 30.19 in NW 4.0 mph 7.0 mph 45% 0.00 in 466 W/m2
17:04 71.5 °F 49.6 °F 30.19 in ENE 5.0 mph 8.0 mph 46% 0.00 in 450 W/m2
17:10 71.4 °F 48.9 °F 30.19 in East 3.0 mph 3.0 mph 45% 0.00 in 392 W/m2
17:16 71.3 °F 48.3 °F 30.19 in ENE 3.0 mph 3.0 mph 44% 0.00 in 415 W/m2
17:22 71.3 °F 50.0 °F 30.19 in NNW 2.0 mph 3.0 mph 47% 0.00 in 394 W/m2
17:28 71.4 °F 50.1 °F 30.19 in NE 2.0 mph 3.0 mph 47% 0.00 in 98 W/m2
17:34 71.4 °F 49.5 °F 30.19 in NNW 2.0 mph 5.0 mph 46% 0.00 in 181 W/m2
17:40 71.4 °F 49.5 °F 30.19 in NE 3.0 mph 4.0 mph 46% 0.00 in 330 W/m2
17:46 71.2 °F 48.8 °F 30.19 in NE 3.0 mph 6.0 mph 45% 0.00 in 193 W/m2
17:52 70.7 °F 49.5 °F 30.19 in ESE 2.0 mph 4.0 mph 47% 0.00 in 53 W/m2
17:58 70.4 °F 51.4 °F 30.19 in East 2.0 mph 4.0 mph 51% 0.00 in 58 W/m2
18:04 70.2 °F 49.6 °F 30.19 in East 2.0 mph 2.0 mph 48% 0.00 in 60 W/m2
18:10 70.2 °F 49.6 °F 30.19 in East 1.0 mph 1.0 mph 48% 0.00 in 100 W/m2
18:16 70.1 °F 48.4 °F 30.19 in ESE 1.0 mph 1.0 mph 46% 0.00 in 53 W/m2
18:22 70.0 °F 50.0 °F 30.19 in NNW 1.0 mph 2.0 mph 49% 0.00 in 49 W/m2
18:28 69.9 °F 50.4 °F 30.19 in NE 1.0 mph 2.0 mph 50% 0.00 in 46 W/m2
18:34 69.7 °F 51.3 °F 30.19 in Calm   1.0 mph 52% 0.00 in 44 W/m2
18:40 69.4 °F 53.5 °F 30.19 in Calm     57% 0.00 in 42 W/m2
18:46 68.8 °F 51.0 °F 30.19 in Calm   1.0 mph 53% 0.00 in 40 W/m2
18:52 68.5 °F 52.7 °F 30.19 in NE 1.0 mph 2.0 mph 57% 0.00 in 37 W/m2
18:58 67.9 °F 54.8 °F 30.19 in Calm   2.0 mph 63% 0.00 in 32 W/m2
19:04 67.3 °F 55.5 °F 30.19 in Calm     66% 0.00 in 26 W/m2
19:10 66.3 °F 55.0 °F 30.19 in Calm     67% 0.00 in 21 W/m2
19:16 65.4 °F 54.6 °F 30.18 in Calm     68% 0.00 in 18 W/m2
19:22 64.8 °F 54.4 °F 30.18 in Calm     69% 0.00 in 14 W/m2
19:28 64.0 °F 54.0 °F 30.19 in Calm     70% 0.00 in 11 W/m2
19:34 63.5 °F 54.3 °F 30.19 in Calm     72% 0.00 in 7 W/m2
19:40 62.7 °F 53.9 °F 30.19 in Calm     73% 0.00 in 5 W/m2
19:46 62.2 °F 53.4 °F 30.19 in Calm     73% 0.00 in 0 W/m2
19:52 61.6 °F 52.9 °F 30.19 in Calm     73% 0.00 in 0 W/m2
19:58 61.1 °F 52.4 °F 30.19 in Calm     73% 0.00 in 0 W/m2
20:04 60.6 °F 51.9 °F 30.19 in Calm     73% 0.00 in 0 W/m2
20:10 60.2 °F 51.9 °F 30.19 in Calm     74% 0.00 in 0 W/m2
20:16 59.8 °F 51.9 °F 30.19 in Calm     75% 0.00 in 0 W/m2
20:22 59.4 °F 51.5 °F 30.19 in Calm     75% 0.00 in 0 W/m2
20:28 59.0 °F 51.4 °F 30.19 in Calm     76% 0.00 in 0 W/m2
20:34 58.6 °F 51.1 °F 30.19 in Calm     76% 0.00 in 0 W/m2
20:40 58.2 °F 51.0 °F 30.20 in Calm     77% 0.00 in 0 W/m2
20:46 57.9 °F 51.1 °F 30.20 in Calm     78% 0.00 in 0 W/m2
20:52 57.6 °F 51.1 °F 30.20 in Calm     79% 0.00 in 0 W/m2
20:58 57.3 °F 51.2 °F 30.20 in Calm     80% 0.00 in 0 W/m2
21:04 57.0 °F 51.2 °F 30.20 in Calm     81% 0.00 in 0 W/m2
21:10 56.8 °F 51.0 °F 30.20 in Calm   1.0 mph 81% 0.00 in 0 W/m2
21:16 56.7 °F 51.3 °F 30.20 in Calm   1.0 mph 82% 0.00 in 0 W/m2
21:22 56.4 °F 51.0 °F 30.21 in Calm     82% 0.00 in 0 W/m2
21:28 56.1 °F 51.0 °F 30.21 in Calm     83% 0.00 in 0 W/m2
21:34 56.0 °F 50.9 °F 30.21 in Calm     83% 0.00 in 0 W/m2
21:40 55.8 °F 50.7 °F 30.21 in Calm     83% 0.00 in 0 W/m2
21:46 55.7 °F 50.9 °F 30.22 in Calm     84% 0.00 in 0 W/m2
21:52 55.6 °F 50.8 °F 30.22 in Calm     84% 0.00 in 0 W/m2
21:58 55.6 °F 51.2 °F 30.22 in Calm     85% 0.00 in 0 W/m2
22:04 55.8 °F 51.7 °F 30.22 in Calm     86% 0.00 in 0 W/m2
22:10 55.8 °F 51.7 °F 30.22 in Calm     86% 0.00 in 0 W/m2
22:16 55.7 °F 51.9 °F 30.22 in Calm     87% 0.00 in 0 W/m2
22:22 55.6 °F 51.8 °F 30.22 in Calm   1.0 mph 87% 0.00 in 0 W/m2
22:28 55.5 °F 51.7 °F 30.22 in Calm   1.0 mph 87% 0.00 in 0 W/m2
22:34 55.4 °F 51.6 °F 30.22 in Calm   1.0 mph 87% 0.00 in 0 W/m2
22:40 55.2 °F 51.4 °F 30.22 in Calm     87% 0.00 in 0 W/m2
22:46 55.1 °F 51.3 °F 30.22 in Calm     87% 0.00 in 0 W/m2
22:52 54.9 °F 51.1 °F 30.22 in Calm     87% 0.00 in 0 W/m2
22:58 54.8 °F 51.0 °F 30.22 in Calm     87% 0.00 in 0 W/m2
23:04 54.8 °F 51.0 °F 30.22 in Calm     87% 0.00 in 0 W/m2
23:10 54.7 °F 50.9 °F 30.22 in Calm     87% 0.00 in 0 W/m2
23:16 54.6 °F 50.8 °F 30.22 in Calm     87% 0.00 in 0 W/m2
23:22 54.6 °F 50.8 °F 30.22 in Calm     87% 0.00 in 0 W/m2
23:28 54.5 °F 51.0 °F 30.22 in Calm     88% 0.00 in 0 W/m2
23:34 54.5 °F 51.0 °F 30.22 in Calm     88% 0.00 in 0 W/m2
23:40 54.5 °F 51.0 °F 30.22 in Calm     88% 0.00 in 0 W/m2
23:46 54.5 °F 51.0 °F 30.22 in Calm     88% 0.00 in 0 W/m2
23:52 54.5 °F 51.0 °F 30.22 in Calm     88% 0.00 in 0 W/m2
23:58 54.5 °F 51.3 °F 30.22 in Calm     89% 0.00 in 0 W/m2
Country Meadow, Clay, NY, USA
Compliments of Weather Underground - 2 mb